sensor_id;sensor_type;location;lat;lon;timestamp;pressure;altitude;pressure_sealevel;temperature;humidity
50650;BME280;36621;60.058;30.346;2023-05-24T00:01:27;101542.91;;;16.13;56.91
50650;BME280;36621;60.058;30.346;2023-05-24T00:09:00;101553.09;;;16.12;56.85
50650;BME280;36621;60.058;30.346;2023-05-24T00:16:32;101529.53;;;16.01;57.09
50650;BME280;36621;60.058;30.346;2023-05-24T00:24:06;101532.66;;;15.89;58.24
50650;BME280;36621;60.058;30.346;2023-05-24T00:31:38;101542.66;;;15.75;59.37
50650;BME280;36621;60.058;30.346;2023-05-24T00:39:11;101531.94;;;15.73;58.80
50650;BME280;36621;60.058;30.346;2023-05-24T00:46:43;101501.34;;;15.45;59.47
50650;BME280;36621;60.058;30.346;2023-05-24T00:54:16;101535.91;;;15.57;60.13
50650;BME280;36621;60.058;30.346;2023-05-24T01:01:49;101536.16;;;15.21;60.00
50650;BME280;36621;60.058;30.346;2023-05-24T01:09:29;101535.09;;;15.56;58.97
50650;BME280;36621;60.058;30.346;2023-05-24T01:17:11;101516.56;;;15.33;59.37
50650;BME280;36621;60.058;30.346;2023-05-24T01:24:54;101550.81;;;15.56;58.45
50650;BME280;36621;60.058;30.346;2023-05-24T01:32:30;101548.66;;;15.48;59.70
50650;BME280;36621;60.058;30.346;2023-05-24T01:40:03;101548.84;;;15.61;58.01
50650;BME280;36621;60.058;30.346;2023-05-24T01:47:46;101545.50;;;16.28;56.98
50650;BME280;36621;60.058;30.346;2023-05-24T01:55:26;101530.97;;;16.23;56.90
50650;BME280;36621;60.058;30.346;2023-05-24T02:02:59;101553.03;;;16.71;55.96
50650;BME280;36621;60.058;30.346;2023-05-24T02:10:35;101549.38;;;16.76;55.79
50650;BME280;36621;60.058;30.346;2023-05-24T02:18:21;101444.56;;;16.13;55.08
50650;BME280;36621;60.058;30.346;2023-05-24T02:25:54;101543.19;;;16.84;54.87
50650;BME280;36621;60.058;30.346;2023-05-24T02:33:30;101512.84;;;17.08;54.24
50650;BME280;36621;60.058;30.346;2023-05-24T02:41:04;101509.88;;;19.74;47.30
50650;BME280;36621;60.058;30.346;2023-05-24T02:48:50;101525.00;;;20.22;46.42
50650;BME280;36621;60.058;30.346;2023-05-24T02:56:22;101526.28;;;18.88;48.97
50650;BME280;36621;60.058;30.346;2023-05-24T03:03:55;101559.13;;;18.48;49.63
50650;BME280;36621;60.058;30.346;2023-05-24T03:11:27;101550.28;;;18.18;50.27
50650;BME280;36621;60.058;30.346;2023-05-24T03:19:00;101551.13;;;18.33;49.94
50650;BME280;36621;60.058;30.346;2023-05-24T03:26:32;101554.31;;;18.40;50.25
50650;BME280;36621;60.058;30.346;2023-05-24T03:34:05;101563.66;;;18.72;49.68
50650;BME280;36621;60.058;30.346;2023-05-24T03:41:39;101538.25;;;18.42;49.15
50650;BME280;36621;60.058;30.346;2023-05-24T03:49:30;101550.25;;;18.79;49.83
50650;BME280;36621;60.058;30.346;2023-05-24T03:57:09;101561.50;;;18.69;49.97
50650;BME280;36621;60.058;30.346;2023-05-24T04:04:42;101544.00;;;18.73;49.72
50650;BME280;36621;60.058;30.346;2023-05-24T04:12:14;101561.63;;;18.91;49.71
50650;BME280;36621;60.058;30.346;2023-05-24T04:19:47;101534.59;;;19.25;48.71
50650;BME280;36621;60.058;30.346;2023-05-24T04:27:25;101557.91;;;19.83;48.24
50650;BME280;36621;60.058;30.346;2023-05-24T04:35:12;101494.31;;;19.64;48.12
50650;BME280;36621;60.058;30.346;2023-05-24T04:42:56;101580.59;;;20.97;46.56
50650;BME280;36621;60.058;30.346;2023-05-24T04:50:58;101572.34;;;25.82;38.23
50650;BME280;36621;60.058;30.346;2023-05-24T05:24:06;101525.91;;;30.79;25.24
50650;BME280;36621;60.058;30.346;2023-05-24T05:31:38;101578.47;;;32.80;23.23
50650;BME280;36621;60.058;30.346;2023-05-24T05:39:10;101588.03;;;33.36;22.17
50650;BME280;36621;60.058;30.346;2023-05-24T05:46:43;101577.63;;;33.97;22.11
50650;BME280;36621;60.058;30.346;2023-05-24T05:54:16;101571.19;;;34.87;20.59
50650;BME280;36621;60.058;30.346;2023-05-24T06:01:49;101579.00;;;33.59;22.16
50650;BME280;36621;60.058;30.346;2023-05-24T06:09:21;101550.59;;;32.75;23.23
50650;BME280;36621;60.058;30.346;2023-05-24T06:16:54;101586.69;;;28.69;29.39
50650;BME280;36621;60.058;30.346;2023-05-24T06:24:26;101572.06;;;26.00;33.44
50650;BME280;36621;60.058;30.346;2023-05-24T06:31:59;101581.44;;;24.86;35.40
50650;BME280;36621;60.058;30.346;2023-05-24T06:39:31;101590.16;;;24.01;37.75
50650;BME280;36621;60.058;30.346;2023-05-24T06:47:04;101581.84;;;23.59;37.57
50650;BME280;36621;60.058;30.346;2023-05-24T06:54:36;101591.50;;;23.40;37.77
50650;BME280;36621;60.058;30.346;2023-05-24T07:02:09;101593.00;;;23.17;36.76
50650;BME280;36621;60.058;30.346;2023-05-24T07:09:41;101532.78;;;22.44;37.66
50650;BME280;36621;60.058;30.346;2023-05-24T07:17:15;101587.75;;;23.06;36.61
50650;BME280;36621;60.058;30.346;2023-05-24T07:24:47;101592.16;;;23.16;36.87
50650;BME280;36621;60.058;30.346;2023-05-24T07:32:19;101599.44;;;23.00;35.47
50650;BME280;36621;60.058;30.346;2023-05-24T07:39:51;101593.91;;;23.21;34.23
50650;BME280;36621;60.058;30.346;2023-05-24T07:47:24;101601.06;;;23.31;34.93
50650;BME280;36621;60.058;30.346;2023-05-24T07:54:56;101591.84;;;23.39;34.80
50650;BME280;36621;60.058;30.346;2023-05-24T08:02:29;101592.56;;;23.48;33.99
50650;BME280;36621;60.058;30.346;2023-05-24T08:10:01;101589.06;;;23.39;35.08
50650;BME280;36621;60.058;30.346;2023-05-24T08:17:37;101577.22;;;23.42;31.69
50650;BME280;36621;60.058;30.346;2023-05-24T08:25:09;101576.09;;;23.76;33.11
50650;BME280;36621;60.058;30.346;2023-05-24T08:32:42;101566.31;;;23.70;30.72
50650;BME280;36621;60.058;30.346;2023-05-24T08:40:14;101569.84;;;23.80;33.64
50650;BME280;36621;60.058;30.346;2023-05-24T08:47:49;101578.56;;;23.57;32.87
50650;BME280;36621;60.058;30.346;2023-05-24T08:55:21;101564.84;;;23.31;32.83
50650;BME280;36621;60.058;30.346;2023-05-24T09:02:55;101560.50;;;23.63;32.82
50650;BME280;36621;60.058;30.346;2023-05-24T09:10:28;101551.34;;;23.20;34.08
50650;BME280;36621;60.058;30.346;2023-05-24T09:18:01;101557.97;;;23.49;32.13
50650;BME280;36621;60.058;30.346;2023-05-24T09:25:33;101547.97;;;23.69;32.49
50650;BME280;36621;60.058;30.346;2023-05-24T09:33:06;101445.81;;;22.98;32.71
50650;BME280;36621;60.058;30.346;2023-05-24T09:40:38;101531.53;;;23.55;31.45
50650;BME280;36621;60.058;30.346;2023-05-24T09:48:11;101544.94;;;23.74;31.16
50650;BME280;36621;60.058;30.346;2023-05-24T09:55:44;101532.50;;;23.38;30.16
50650;BME280;36621;60.058;30.346;2023-05-24T10:03:17;101514.84;;;23.34;30.05
50650;BME280;36621;60.058;30.346;2023-05-24T10:10:49;101537.78;;;23.52;29.81
50650;BME280;36621;60.058;30.346;2023-05-24T10:18:22;101538.19;;;23.63;29.44
50650;BME280;36621;60.058;30.346;2023-05-24T10:26:01;101527.31;;;23.83;28.92
50650;BME280;36621;60.058;30.346;2023-05-24T10:33:35;101527.91;;;24.09;28.27
50650;BME280;36621;60.058;30.346;2023-05-24T10:41:08;101519.19;;;24.36;28.40
50650;BME280;36621;60.058;30.346;2023-05-24T10:48:41;101510.72;;;24.69;29.04
50650;BME280;36621;60.058;30.346;2023-05-24T10:56:14;101512.59;;;24.77;30.41
50650;BME280;36621;60.058;30.346;2023-05-24T11:03:47;101517.47;;;24.81;30.24
50650;BME280;36621;60.058;30.346;2023-05-24T11:11:25;101493.50;;;24.79;28.25
50650;BME280;36621;60.058;30.346;2023-05-24T11:19:10;101505.34;;;24.52;29.66
50650;BME280;36621;60.058;30.346;2023-05-24T11:26:43;101497.78;;;24.27;28.15
50650;BME280;36621;60.058;30.346;2023-05-24T11:34:15;101458.84;;;24.19;28.53
50650;BME280;36621;60.058;30.346;2023-05-24T11:41:48;101485.56;;;24.57;27.39
50650;BME280;36621;60.058;30.346;2023-05-24T11:49:21;101482.09;;;24.72;27.19
50650;BME280;36621;60.058;30.346;2023-05-24T11:56:53;101477.09;;;24.41;29.27
50650;BME280;36621;60.058;30.346;2023-05-24T12:04:27;101472.13;;;24.34;29.38
50650;BME280;36621;60.058;30.346;2023-05-24T12:11:59;101461.66;;;24.06;28.72
50650;BME280;36621;60.058;30.346;2023-05-24T12:19:33;101449.09;;;24.13;29.42
50650;BME280;36621;60.058;30.346;2023-05-24T12:27:06;101456.88;;;24.07;29.29
50650;BME280;36621;60.058;30.346;2023-05-24T12:34:40;101424.16;;;23.83;28.80
50650;BME280;36621;60.058;30.346;2023-05-24T12:42:12;101421.38;;;23.83;28.36
50650;BME280;36621;60.058;30.346;2023-05-24T12:49:45;101434.09;;;23.92;29.15
50650;BME280;36621;60.058;30.346;2023-05-24T12:57:17;101424.22;;;24.07;30.15
50650;BME280;36621;60.058;30.346;2023-05-24T13:04:50;101420.72;;;24.23;30.28
50650;BME280;36621;60.058;30.346;2023-05-24T13:12:22;101427.59;;;24.13;29.62
50650;BME280;36621;60.058;30.346;2023-05-24T13:20:01;101428.63;;;23.96;29.94
50650;BME280;36621;60.058;30.346;2023-05-24T13:27:36;101418.13;;;23.81;30.09
50650;BME280;36621;60.058;30.346;2023-05-24T13:35:08;101418.41;;;24.00;30.61
50650;BME280;36621;60.058;30.346;2023-05-24T13:42:41;101419.59;;;23.99;30.54
50650;BME280;36621;60.058;30.346;2023-05-24T13:50:14;101409.44;;;23.95;30.27
50650;BME280;36621;60.058;30.346;2023-05-24T13:57:46;101420.75;;;23.98;31.01
50650;BME280;36621;60.058;30.346;2023-05-24T14:05:19;101423.16;;;23.87;31.04
50650;BME280;36621;60.058;30.346;2023-05-24T14:12:52;101411.84;;;23.59;30.77
50650;BME280;36621;60.058;30.346;2023-05-24T14:20:27;101416.47;;;23.55;30.58
50650;BME280;36621;60.058;30.346;2023-05-24T14:27:59;101395.16;;;23.26;30.83
50650;BME280;36621;60.058;30.346;2023-05-24T14:35:32;101399.69;;;23.30;31.92
50650;BME280;36621;60.058;30.346;2023-05-24T14:43:08;101411.44;;;23.36;31.22
50650;BME280;36621;60.058;30.346;2023-05-24T14:50:41;101408.38;;;23.07;31.91
50650;BME280;36621;60.058;30.346;2023-05-24T14:58:13;101408.47;;;22.99;32.59
50650;BME280;36621;60.058;30.346;2023-05-24T15:05:46;101393.13;;;22.93;33.03
50650;BME280;36621;60.058;30.346;2023-05-24T15:13:21;101391.22;;;23.05;33.89
50650;BME280;36621;60.058;30.346;2023-05-24T15:20:55;101389.19;;;23.15;33.61
50650;BME280;36621;60.058;30.346;2023-05-24T15:28:27;101390.50;;;23.30;32.38
50650;BME280;36621;60.058;30.346;2023-05-24T15:36:01;101396.22;;;23.46;32.40
50650;BME280;36621;60.058;30.346;2023-05-24T15:43:33;101389.00;;;23.32;31.90
50650;BME280;36621;60.058;30.346;2023-05-24T15:51:07;101388.31;;;23.35;32.01
50650;BME280;36621;60.058;30.346;2023-05-24T15:58:39;101383.56;;;23.36;32.48
50650;BME280;36621;60.058;30.346;2023-05-24T16:06:11;101380.09;;;23.51;31.68
50650;BME280;36621;60.058;30.346;2023-05-24T16:13:43;101362.25;;;23.65;31.86
50650;BME280;36621;60.058;30.346;2023-05-24T16:21:16;101306.97;;;23.54;31.39
50650;BME280;36621;60.058;30.346;2023-05-24T16:28:49;101345.31;;;23.95;30.96
50650;BME280;36621;60.058;30.346;2023-05-24T16:36:22;101377.16;;;24.06;31.81
50650;BME280;36621;60.058;30.346;2023-05-24T16:43:54;101341.13;;;23.64;32.69
50650;BME280;36621;60.058;30.346;2023-05-24T16:51:27;101365.03;;;23.65;32.95
50650;BME280;36621;60.058;30.346;2023-05-24T16:59:00;101366.91;;;23.61;33.24
50650;BME280;36621;60.058;30.346;2023-05-24T17:06:33;101370.03;;;23.84;32.78
50650;BME280;36621;60.058;30.346;2023-05-24T17:14:05;101377.59;;;24.20;32.70
50650;BME280;36621;60.058;30.346;2023-05-24T17:21:38;101380.97;;;24.26;30.15
50650;BME280;36621;60.058;30.346;2023-05-24T17:29:10;101374.72;;;24.17;28.36
50650;BME280;36621;60.058;30.346;2023-05-24T17:36:43;101266.84;;;23.10;28.15
50650;BME280;36621;60.058;30.346;2023-05-24T17:44:15;101371.47;;;23.32;28.39
50650;BME280;36621;60.058;30.346;2023-05-24T17:51:48;101370.09;;;23.04;29.10
50650;BME280;36621;60.058;30.346;2023-05-24T17:59:20;101373.47;;;22.77;29.21
50650;BME280;36621;60.058;30.346;2023-05-24T18:06:56;101373.88;;;22.66;29.51
50650;BME280;36621;60.058;30.346;2023-05-24T18:14:28;101366.25;;;22.33;29.75
50650;BME280;36621;60.058;30.346;2023-05-24T18:22:03;101361.13;;;22.14;29.77
50650;BME280;36621;60.058;30.346;2023-05-24T18:29:35;101366.44;;;21.98;31.11
50650;BME280;36621;60.058;30.346;2023-05-24T18:37:08;101376.38;;;21.70;32.01
50650;BME280;36621;60.058;30.346;2023-05-24T18:44:40;101366.31;;;21.39;32.65
50650;BME280;36621;60.058;30.346;2023-05-24T18:52:14;101360.50;;;21.14;33.58
50650;BME280;36621;60.058;30.346;2023-05-24T18:59:46;101353.69;;;20.85;35.08
50650;BME280;36621;60.058;30.346;2023-05-24T19:07:19;101368.84;;;20.61;35.54
50650;BME280;36621;60.058;30.346;2023-05-24T19:14:51;101360.31;;;20.32;36.33
50650;BME280;36621;60.058;30.346;2023-05-24T19:22:24;101354.09;;;20.17;36.94
50650;BME280;36621;60.058;30.346;2023-05-24T19:29:57;101346.41;;;20.05;37.93
50650;BME280;36621;60.058;30.346;2023-05-24T19:37:31;101332.50;;;19.88;38.63
50650;BME280;36621;60.058;30.346;2023-05-24T19:45:03;101325.91;;;19.75;39.46
50650;BME280;36621;60.058;30.346;2023-05-24T19:52:37;101325.56;;;19.68;40.70
50650;BME280;36621;60.058;30.346;2023-05-24T20:00:09;101335.00;;;19.67;41.76
50650;BME280;36621;60.058;30.346;2023-05-24T20:07:43;101331.41;;;19.57;42.55
50650;BME280;36621;60.058;30.346;2023-05-24T20:15:17;101324.34;;;19.51;42.93
50650;BME280;36621;60.058;30.346;2023-05-24T20:22:49;101318.75;;;19.42;44.46
50650;BME280;36621;60.058;30.346;2023-05-24T20:30:22;101317.72;;;19.30;44.79
50650;BME280;36621;60.058;30.346;2023-05-24T20:37:54;101313.13;;;19.25;45.40
50650;BME280;36621;60.058;30.346;2023-05-24T20:45:27;101267.91;;;18.75;45.43
50650;BME280;36621;60.058;30.346;2023-05-24T20:52:59;101315.75;;;18.99;47.22
50650;BME280;36621;60.058;30.346;2023-05-24T21:00:31;101310.25;;;18.85;46.71
50650;BME280;36621;60.058;30.346;2023-05-24T21:08:04;101312.78;;;18.86;47.23
50650;BME280;36621;60.058;30.346;2023-05-24T21:15:37;101316.75;;;18.80;46.77
50650;BME280;36621;60.058;30.346;2023-05-24T21:23:09;101316.19;;;18.69;47.49
50650;BME280;36621;60.058;30.346;2023-05-24T21:30:41;101316.84;;;18.52;47.88
50650;BME280;36621;60.058;30.346;2023-05-24T21:38:14;101316.41;;;18.36;47.80
50650;BME280;36621;60.058;30.346;2023-05-24T21:45:46;101315.00;;;18.25;48.36
50650;BME280;36621;60.058;30.346;2023-05-24T21:53:19;101316.78;;;18.07;48.69
50650;BME280;36621;60.058;30.346;2023-05-24T22:00:53;101317.59;;;17.94;49.15
50650;BME280;36621;60.058;30.346;2023-05-24T22:08:25;101312.16;;;17.88;49.30
50650;BME280;36621;60.058;30.346;2023-05-24T22:15:58;101313.91;;;17.84;50.23
50650;BME280;36621;60.058;30.346;2023-05-24T22:23:31;101300.41;;;17.83;49.12
50650;BME280;36621;60.058;30.346;2023-05-24T22:31:03;101303.78;;;17.66;49.47
50650;BME280;36621;60.058;30.346;2023-05-24T22:38:36;101272.41;;;17.48;50.07
50650;BME280;36621;60.058;30.346;2023-05-24T22:46:08;101284.56;;;17.47;50.36
50650;BME280;36621;60.058;30.346;2023-05-24T22:53:40;101289.53;;;17.45;49.48
50650;BME280;36621;60.058;30.346;2023-05-24T23:01:13;101286.91;;;17.40;50.45
50650;BME280;36621;60.058;30.346;2023-05-24T23:08:47;101281.97;;;17.23;50.55
50650;BME280;36621;60.058;30.346;2023-05-24T23:16:20;101179.63;;;16.44;52.20
50650;BME280;36621;60.058;30.346;2023-05-24T23:23:52;101300.13;;;17.10;51.87
50650;BME280;36621;60.058;30.346;2023-05-24T23:31:27;101299.56;;;16.94;52.92
50650;BME280;36621;60.058;30.346;2023-05-24T23:38:59;101298.03;;;16.88;52.87
50650;BME280;36621;60.058;30.346;2023-05-24T23:46:31;101283.41;;;16.68;54.01
50650;BME280;36621;60.058;30.346;2023-05-24T23:54:04;101281.81;;;16.67;54.04
